»·PEaware :: N74WR CYYJ-KOLM

N74WR :: CYYJ-KOLM

FLIGHT INFORMATION

Flight Status: Arrived
Operator: Privately registered:
United States
More flights under this callsign
Pilot: Wayne R. (17783)
Aircraft: DEHAVILLAND DH-2 BEAVER
(DHC2)
More flights by this aircraft type
Origin: CYYJ Victoria Intl
Canada
Destination: KOLM Olympia
United States
More flights between these airports :: More routes between these airports
Route:
File this flight plan on PilotEdge
Remarks:
Altitude:
(Current/Filed)
3,500ft
Speed:
(Current/Filed)
130kts
Departed: 02-Jan-21 06:28 PM
Arrived: 02-Jan-21 07:16 PM
Distance/Time
Traveled:
102nm/0:48
Distance/Time
To Go:
Arrived

Flight Plot

Page will automatically refresh every two minutes.

Flight plan parsing failed; only flown route is shown


Map Options




Map Legend


Flown Route
Filed Route
Departure Airport
Arrival Airport
Navaid (VOR, NDB)
Fix

Horizontal Profiles

Position Reports

Time Latitude Longitude Heading Altitude Ground
Speed
02-Jan-21 18:26 48.386475 -123.232265 159 2881ft 128kts
02-Jan-21 18:27 48.354679 -123.207912 158 2574ft 127kts
02-Jan-21 18:28 48.322795 -123.184208 158 2266ft 127kts
02-Jan-21 18:29 48.291704 -123.161337 158 2176ft 120kts
02-Jan-21 18:30 48.262194 -123.138877 158 2182ft 120kts
02-Jan-21 18:31 48.231396 -123.119408 166 2184ft 120kts
02-Jan-21 18:32 48.198006 -123.101412 166 1903ft 131kts
02-Jan-21 18:33 48.163341 -123.082395 166 1672ft 131kts
02-Jan-21 18:34 48.129831 -123.063383 166 1676ft 127kts
02-Jan-21 18:36 48.096959 -123.047899 180 1675ft 120kts
02-Jan-21 18:37 48.064075 -123.039265 171 1680ft 122kts
02-Jan-21 18:38 48.033696 -123.014266 159 1680ft 123kts
02-Jan-21 18:39 48.004116 -123.006590 200 1680ft 106kts
02-Jan-21 18:40 47.980815 -122.982258 102 1645ft 141kts
02-Jan-21 18:41 47.978441 -122.925328 86 1691ft 142kts
02-Jan-21 18:42 47.986707 -122.870169 100 1675ft 125kts
02-Jan-21 18:43 47.979004 -122.825200 154 1700ft 101kts
02-Jan-21 18:44 47.953112 -122.816043 183 1699ft 97kts
02-Jan-21 18:45 47.926071 -122.818474 180 1690ft 96kts
02-Jan-21 18:46 47.899189 -122.821027 184 1681ft 97kts
02-Jan-21 18:47 47.872029 -122.823434 182 1672ft 99kts
02-Jan-21 18:48 47.844614 -122.826191 186 1686ft 100kts
02-Jan-21 18:49 47.816996 -122.827895 188 1673ft 100kts
02-Jan-21 18:50 47.789039 -122.825854 167 1686ft 103kts
02-Jan-21 18:51 47.764959 -122.817249 176 1678ft 102kts
02-Jan-21 18:51 47.743819 -122.815673 179 1970ft 121kts
02-Jan-21 18:53 47.705564 -122.828777 187 2425ft 117kts
02-Jan-21 18:54 47.673296 -122.836253 184 2920ft 117kts
02-Jan-21 18:54 47.646328 -122.840148 184 3329ft 114kts
02-Jan-21 18:56 47.607826 -122.843601 179 3464ft 124kts
02-Jan-21 18:56 47.578862 -122.844320 179 3463ft 125kts
02-Jan-21 18:57 47.543907 -122.845179 179 3463ft 125kts
02-Jan-21 18:58 47.509116 -122.846861 181 3463ft 125kts
02-Jan-21 18:59 47.474362 -122.849499 181 3463ft 125kts
02-Jan-21 19:00 47.439516 -122.852132 181 3463ft 125kts
02-Jan-21 19:01 47.404370 -122.854703 181 3227ft 126kts
02-Jan-21 19:02 47.369121 -122.857224 181 2925ft 126kts
02-Jan-21 19:03 47.333994 -122.859727 181 2625ft 126kts
02-Jan-21 19:04 47.298588 -122.862240 181 2329ft 129kts
02-Jan-21 19:05 47.262859 -122.864710 181 2025ft 126kts
02-Jan-21 19:06 47.228681 -122.867027 181 1962ft 120kts
02-Jan-21 19:07 47.194950 -122.869347 181 1963ft 122kts
02-Jan-21 19:08 47.161033 -122.870942 177 1963ft 122kts
02-Jan-21 19:09 47.127108 -122.869812 177 1963ft 122kts
02-Jan-21 19:10 47.093119 -122.869628 181 1963ft 122kts
02-Jan-21 19:11 47.060012 -122.873995 186 1884ft 113kts
02-Jan-21 19:12 47.033009 -122.879634 187 1643ft 79kts
02-Jan-21 19:13 47.012132 -122.892550 195 1313ft 83kts
02-Jan-21 19:14 46.989467 -122.898791 189 902ft 75kts
02-Jan-21 19:15 46.973228 -122.902992 168 202ft 1kts
02-Jan-21 19:16 46.967400 -122.904702 130 202ft 18kts
02-Jan-21 19:17 46.967241 -122.903538 95 202ft 0kts
02-Jan-21 19:18 46.968922 -122.900531 14 202ft 18kts
02-Jan-21 19:19 46.972589 -122.896484 356 202ft 17kts
02-Jan-21 19:20 46.975721 -122.899806 328 197ft 13kts
02-Jan-21 19:21 46.976903 -122.899071 339 195ft 0kts
02-Jan-21 19:22 46.976903 -122.899071 339 195ft 0kts
02-Jan-21 19:23 46.976902 -122.899071 339 195ft 0kts

Navigation Log

Ident Type
Flight plan parsing failed, navigation log unavailable